Terminal Aerodrome Forecast
Issued by NWS

Home | Current Version | Previous Version | Text Only | Print | Product List | Glossary On
Versions: 1 2 3 4 5 6 7 8 9 10 11 12 13 14 15
664
FTUS46 KSTO 081136
TAFSAC
TAF
KSAC 081136Z 0812/0912 00000KT 1SM BR BCFG SKC
      TEMPO 0813/0817 1/2SM FG
     FM081800 33006KT P6SM SKC=

USA.gov is the U.S. government's official web portal to all federal, state and local government web resources and services.